Rivadeo, Argentina
Current Conditions -  °F | °C
As of 5:00 PM on Sunday 25 Jan 2015 (Local Time) from SAZN Reporting Station
Clear Clear  
Wind Chill: 34°   Ceiling: Unl
Heat Index: 34°   Visibility: 6mi
Dew Point: 13°   Wind: 10mph
Humidity: 28%   Direction: 20°NNE
Pressure: 29.71"   Gusts: NA
Location:  38.15°S, 63.06°W
Report Text: SAZN 252000Z 02009KT CAVOK 34/13 Q1006
Loading
Personal Weather Stations






























Interactive Weather Map New forecast layout! Learn more

10-Day Weather Forecast

Advertisements
Track Severe Weather on mobile